ADDS METAR Data INFO
IDs: Format: Raw Decoded Include TAF

Data at: 0923 UTC 13 Dec 2017

KSTJ 130853Z AUTO 20007KT 10SM CLR M01/M03 A2975 RMK AO2 SLP079 T10061033 58042
KSTJ 130753Z AUTO 18006KT 10SM CLR M01/M03 A2979 RMK AO2 SLP095 T10111033
KSTJ 130653Z AUTO 16003KT 10SM CLR 00/M03 A2984 RMK AO2 SLP111 T00001028
KSTJ 130553Z AUTO 17006KT 10SM CLR M01/M03 A2988 RMK AO2 SLP124 T10061028 10006 21028 400441100 58039
KSTJ 130453Z AUTO 19005KT 10SM CLR M02/M04 A2992 RMK AO2 SLP140 T10171039
KSTJ 130353Z AUTO 15005KT 10SM CLR M01/M04 A2997 RMK AO2 SLP157 T10111039
KSTJ 130253Z AUTO 16003KT 10SM CLR M01/M04 A3000 RMK AO2 SLP167 T10111044 56036
KSTJ 130153Z AUTO 18005KT 10SM CLR M02/M05 A3003 RMK AO2 SLP178 T10171050
KSTJ 130053Z 20005KT 9SM CLR M01/M04 A3006 RMK AO2 SLP191 T10061044
KSTJ 122353Z 18005KT 10SM CLR M01/M05 A3010 RMK AO2 SLP204 T10061050 10044 21006 56026
KSTJ 122253Z 20005KT 10SM SCT039 02/M04 A3013 RMK AO2 SLP212 T00171044
KSTJ 122153Z AUTO 24007KT 10SM BKN043 04/M04 A3015 RMK AO2 SLP218 T00391044
KSTJ 122053Z 25009KT 10SM CLR 04/M05 A3018 RMK AO2 SLP228 T00441050 58040
KSTJ 121953Z 26008KT 10SM CLR 03/M06 A3022 RMK AO2 SLP241 T00331061
KSTJ 121853Z 28007KT 10SM CLR 01/M08 A3027 RMK AO2 SLP258 T00111083
KSTJ 121753Z 25009KT 10SM CLR M01/M10 A3031 RMK AO2 SLP271 T10061100 11006 21100 58019
KSTJ 121653Z 30004KT 10SM CLR M02/M10 A3036 RMK AO2 SLP289 T10221100
KSTJ 121553Z 31006KT 10SM CLR M04/M08 A3036 RMK AO2 SLP291 T10391078
KSTJ 121453Z 31007KT 10SM CLR M06/M08 A3036 RMK AO2 SLP290 T10561083 53003
KSTJ 121353Z 00000KT 10SM CLR M08/M11 A3035 RMK AO2 SLP288 T10781106
KSTJ 121253Z 35008KT 10SM CLR M08/M11 A3036 RMK AO2 SLP289 T10781106
KSTJ 121153Z AUTO 35009KT 10SM CLR M07/M10 A3035 RMK AO2 SLP286 T10721100 11011 21083 50003
KSTJ 121053Z AUTO 34009KT 10SM CLR M07/M09 A3036 RMK AO2 SLP287 T10671094
KSTJ 120953Z AUTO 35010KT 10SM CLR M05/M09 A3036 RMK AO2 SLP287 T10501094
KSTJ 120853Z AUTO 35014KT 10SM CLR M04/M08 A3034 RMK AO2 SLP281 T10391083 51017
KSTJ 120753Z AUTO 35017KT 10SM CLR M03/M07 A3033 RMK AO2 SLP275 T10281072
KSTJ 120653Z AUTO 34014G21KT 10SM CLR M02/M06 A3031 RMK AO2 SLP269 T10171056
KSTJ 120553Z AUTO 35008KT 10SM CLR M02/M05 A3029 RMK AO2 SLP263 60000 T10171050 10067 21017 401281050 51023
KSTJ 120453Z AUTO 34014KT 10SM CLR 01/M04 A3029 RMK AO2 PK WND 33030/0359 SLP259 T00061039
KSTJ 120353Z AUTO 34018G27KT 10SM SCT034 02/M04 A3026 RMK AO2 PK WND 35027/0350 SLP250 T00221039
KSTJ 120253Z AUTO 34014G24KT 10SM BKN037 03/M03 A3023 RMK AO2 PK WND 35027/0157 SLP239 60000 T00331028 53038
KSTJ 120153Z AUTO 35021G30KT 10SM SCT042 04/M02 A3018 RMK AO2 PK WND 34035/0118 SLP228 T00441022
KSTJ 120053Z 34023G29KT 10SM BKN031 OVC043 07/01 A3014 RMK AO2 PK WND 35031/0016 RAE2359 SLP212 P0000 T00670011
KSTJ 112353Z 34014G27KT 10SM -RA OVC033 07/02 A3011 RMK AO2 PK WND 32033/2311 RAB06 SLP202 P0000 60000 T00670022 10128 20067 53031
KSTJ 112253Z 33022G29KT 10SM OVC043 09/01 A3007 RMK AO2 PK WND 31032/2207 SLP186 T00890006
KSTJ 112153Z 32018G30KT 10SM OVC050 10/01 A3003 RMK AO2 PK WND 32034/2058 SLP175 T01000006